createdAt,value
2018-04-18T00:00:26.972Z,99.00
2018-04-18T00:02:55.624Z,98.80
2018-04-18T00:05:23.487Z,98.80
2018-04-18T00:07:51.600Z,98.60
2018-04-18T00:10:20.225Z,98.70
2018-04-18T00:12:49.438Z,98.60
2018-04-18T00:15:17.747Z,98.60
2018-04-18T00:17:45.925Z,98.50
2018-04-18T00:20:14.773Z,98.50
2018-04-18T00:22:43.586Z,98.50
2018-04-18T00:25:13.843Z,98.50
2018-04-18T00:27:45.182Z,98.40
2018-04-18T00:30:13.425Z,98.50
2018-04-18T00:32:41.263Z,98.60
2018-04-18T00:35:09.041Z,98.50
2018-04-18T00:37:37.674Z,98.30
2018-04-18T00:40:06.824Z,98.30
2018-04-18T00:42:35.727Z,98.40
2018-04-18T00:45:04.284Z,98.40
2018-04-18T00:47:33.201Z,98.40
2018-04-18T00:50:02.979Z,98.20
2018-04-18T00:52:31.001Z,98.30
2018-04-18T00:54:59.552Z,98.20
2018-04-18T00:57:27.657Z,98.20
2018-04-18T00:59:57.572Z,98.00
2018-04-18T01:02:26.481Z,98.00
2018-04-18T01:04:55.300Z,97.90
2018-04-18T01:07:23.649Z,97.90
2018-04-18T01:09:51.518Z,97.80
2018-04-18T01:12:19.460Z,97.70
2018-04-18T01:14:47.687Z,97.70
2018-04-18T01:17:17.104Z,97.90
2018-04-18T01:19:44.832Z,97.80
2018-04-18T01:22:13.358Z,98.20
2018-04-18T01:24:41.138Z,98.20
2018-04-18T01:27:09.750Z,98.30
2018-04-18T01:29:38.833Z,98.30
2018-04-18T01:32:08.186Z,98.30
2018-04-18T01:34:37.727Z,98.20
2018-04-18T01:37:05.768Z,98.30
2018-04-18T01:39:35.388Z,98.10
2018-04-18T01:42:03.333Z,98.20
2018-04-18T01:44:31.170Z,98.10
2018-04-18T01:47:00.620Z,98.00
2018-04-18T01:49:32.543Z,97.80
2018-04-18T01:52:00.288Z,97.80
2018-04-18T01:54:28.183Z,97.80
2018-04-18T01:56:57.808Z,98.30
2018-04-18T01:59:26.478Z,98.30
2018-04-18T02:01:56.184Z,98.20
2018-04-18T02:04:25.994Z,98.20
2018-04-18T02:06:57.995Z,98.50
2018-04-18T02:09:28.534Z,98.50
2018-04-18T02:11:57.744Z,98.50
2018-04-18T02:14:27.180Z,98.50
2018-04-18T02:16:57.623Z,98.60
2018-04-18T02:19:25.751Z,98.80
2018-04-18T02:21:55.788Z,98.90
2018-04-18T02:24:23.491Z,99.00
2018-04-18T02:26:51.888Z,99.10
2018-04-18T02:29:20.528Z,99.20
2018-04-18T02:31:48.905Z,99.20
2018-04-18T02:34:16.720Z,99.20
2018-04-18T02:36:44.650Z,99.50
2018-04-18T02:39:13.600Z,99.50
2018-04-18T02:41:43.264Z,99.60
2018-04-18T02:44:16.445Z,99.60
2018-04-18T02:46:44.341Z,99.80
2018-04-18T02:49:12.273Z,99.90
2018-04-18T02:51:40.842Z,99.90
2018-04-18T02:54:08.973Z,99.90
2018-04-18T02:56:36.670Z,99.90
2018-04-18T02:59:04.516Z,99.90
2018-04-18T03:01:33.479Z,99.90
2018-04-18T03:04:02.223Z,99.90
2018-04-18T03:06:31.980Z,99.90
2018-04-18T03:09:00.093Z,99.90
2018-04-18T03:11:32.514Z,99.90
2018-04-18T03:14:01.997Z,99.90
2018-04-18T03:16:29.746Z,99.90
2018-04-18T03:18:57.498Z,99.90
2018-04-18T03:21:26.972Z,99.90
2018-04-18T03:23:54.904Z,99.90
2018-04-18T03:26:23.958Z,99.90
2018-04-18T03:28:52.356Z,99.90
2018-04-18T03:31:20.659Z,99.90
2018-04-18T03:33:48.627Z,99.90
2018-04-18T03:36:17.724Z,99.90
2018-04-18T03:38:47.413Z,99.90
2018-04-18T03:41:16.900Z,99.90
2018-04-18T03:43:46.461Z,99.70
2018-04-18T03:46:14.678Z,99.70
2018-04-18T03:48:42.491Z,99.70
2018-04-18T03:51:10.289Z,99.80
2018-04-18T03:53:39.606Z,99.80
2018-04-18T03:56:08.373Z,99.80
2018-04-18T03:58:36.429Z,99.80
2018-04-18T04:01:04.113Z,99.70
2018-04-18T04:03:32.141Z,99.80
2018-04-18T04:05:59.804Z,99.80
2018-04-18T04:08:27.471Z,99.80
2018-04-18T04:10:55.512Z,99.80
2018-04-18T04:13:23.286Z,99.80
2018-04-18T04:15:50.952Z,99.70
2018-04-18T04:18:30.578Z,99.80
2018-04-18T04:21:10.112Z,99.80
2018-04-18T04:23:49.647Z,99.90
2018-04-18T04:26:17.706Z,99.90
2018-04-18T04:28:45.389Z,99.90
2018-04-18T04:31:13.049Z,99.90
2018-04-18T04:33:40.776Z,99.90
2018-04-18T04:36:08.453Z,99.90
2018-04-18T04:38:36.114Z,99.90
2018-04-18T04:41:03.792Z,99.90
2018-04-18T04:43:31.441Z,99.90
2018-04-18T04:45:59.145Z,99.90
2018-04-18T04:48:27.271Z,99.90
2018-04-18T04:50:55.002Z,99.90
2018-04-18T04:53:23.774Z,99.90
2018-04-18T04:55:51.461Z,99.90
2018-04-18T04:58:20.611Z,99.80
2018-04-18T05:00:48.384Z,99.80
2018-04-18T05:03:16.029Z,99.40
2018-04-18T05:05:43.777Z,99.50
2018-04-18T05:08:12.333Z,99.60
2018-04-18T05:10:39.997Z,99.70
2018-04-18T05:13:07.667Z,99.60
2018-04-18T05:15:35.376Z,99.50
2018-04-18T05:18:03.024Z,99.30
2018-04-18T05:20:30.724Z,99.30
2018-04-18T05:22:58.349Z,99.30
2018-04-18T05:25:25.997Z,99.40
2018-04-18T05:27:53.772Z,99.20
2018-04-18T05:30:22.449Z,99.30
2018-04-18T05:32:52.580Z,99.20
2018-04-18T05:35:20.993Z,99.20
2018-04-18T05:37:48.703Z,99.20
2018-04-18T05:40:16.386Z,99.30
2018-04-18T05:42:44.835Z,99.30
2018-04-18T05:45:12.575Z,99.30
2018-04-18T05:47:40.251Z,99.30
2018-04-18T05:50:08.134Z,99.40
2018-04-18T05:52:35.785Z,99.40
2018-04-18T05:55:03.516Z,99.40
2018-04-18T05:57:31.192Z,99.40
2018-04-18T05:59:58.896Z,99.40
2018-04-18T06:02:26.675Z,99.40
2018-04-18T06:04:54.405Z,99.30
2018-04-18T06:07:23.068Z,99.20
2018-04-18T06:09:51.204Z,99.20
2018-04-18T06:12:18.859Z,99.10
2018-04-18T06:14:46.509Z,99.00
2018-04-18T06:17:14.844Z,98.90
2018-04-18T06:19:43.365Z,98.70
2018-04-18T06:22:11.877Z,98.70
2018-04-18T06:24:39.562Z,98.60
2018-04-18T06:27:07.275Z,98.40
2018-04-18T06:29:35.679Z,98.20
2018-04-18T06:32:03.424Z,97.80
2018-04-18T06:34:31.216Z,97.60
2018-04-18T06:36:59.796Z,97.20
2018-04-18T06:39:27.617Z,96.90
2018-04-18T06:41:55.942Z,96.40
2018-04-18T06:44:24.197Z,96.10
2018-04-18T06:46:51.884Z,95.80
2018-04-18T06:49:19.576Z,95.30
2018-04-18T06:51:47.265Z,95.20
2018-04-18T06:54:15.677Z,94.80
2018-04-18T06:56:43.940Z,94.80
2018-04-18T06:59:11.584Z,94.30
2018-04-18T07:01:40.092Z,94.20
2018-04-18T07:04:08.564Z,93.50
2018-04-18T07:06:38.444Z,93.50
2018-04-18T07:09:06.775Z,93.50
2018-04-18T07:11:34.433Z,93.40
2018-04-18T07:14:02.400Z,93.00
2018-04-18T07:16:30.842Z,92.50
2018-04-18T07:18:58.491Z,92.50
2018-04-18T07:21:26.213Z,92.50
2018-04-18T07:23:53.888Z,92.00
2018-04-18T07:26:21.573Z,91.90
2018-04-18T07:28:49.215Z,91.60
2018-04-18T07:31:18.533Z,91.30
2018-04-18T07:33:46.512Z,91.30
2018-04-18T07:36:14.177Z,91.20
2018-04-18T07:38:41.901Z,90.60
2018-04-18T07:41:11.141Z,90.20
2018-04-18T07:43:38.823Z,90.00
2018-04-18T07:46:06.489Z,89.80
2018-04-18T07:48:34.958Z,89.20
2018-04-18T07:51:02.863Z,89.20
2018-04-18T07:53:30.537Z,88.20
2018-04-18T07:55:58.223Z,87.80
2018-04-18T07:58:25.965Z,87.50
2018-04-18T08:00:53.648Z,87.40
2018-04-18T08:03:22.131Z,86.10
2018-04-18T08:05:50.553Z,85.70
2018-04-18T08:08:18.421Z,85.70
2018-04-18T08:10:46.129Z,85.70
2018-04-18T08:13:13.822Z,84.50
2018-04-18T08:15:42.311Z,84.30
2018-04-18T08:18:10.757Z,83.30
2018-04-18T08:20:39.259Z,82.40
2018-04-18T08:23:06.981Z,82.40
2018-04-18T08:25:34.685Z,81.30
2018-04-18T08:28:02.365Z,80.70
2018-04-18T08:30:30.380Z,79.60
2018-04-18T08:32:58.016Z,78.50
2018-04-18T08:35:26.450Z,77.30
2018-04-18T08:37:55.136Z,77.60
2018-04-18T08:40:22.841Z,77.00
2018-04-18T08:42:53.328Z,77.30
2018-04-18T08:45:20.991Z,77.40
2018-04-18T08:47:48.644Z,76.10
2018-04-18T08:50:16.341Z,75.60
2018-04-18T08:52:44.049Z,73.70
2018-04-18T08:55:12.508Z,75.20
2018-04-18T08:57:41.489Z,74.90
2018-04-18T09:00:09.851Z,74.80
2018-04-18T09:02:37.544Z,75.40
2018-04-18T09:05:05.209Z,73.90
2018-04-18T09:07:32.853Z,74.30
2018-04-18T09:10:00.536Z,72.80
2018-04-18T09:12:28.469Z,71.90
2018-04-18T09:14:56.166Z,71.60
2018-04-18T09:17:23.799Z,72.10
2018-04-18T09:19:51.514Z,71.30
2018-04-18T09:22:19.970Z,69.70
2018-04-18T09:24:47.606Z,69.70
2018-04-18T09:27:15.777Z,68.50
2018-04-18T09:29:46.246Z,67.60
2018-04-18T09:32:13.924Z,67.40
2018-04-18T09:34:41.564Z,68.30
2018-04-18T09:37:10.035Z,66.80
2018-04-18T09:39:37.736Z,66.80
2018-04-18T09:42:06.189Z,66.70
2018-04-18T09:44:33.865Z,66.10
2018-04-18T09:47:02.219Z,64.30
2018-04-18T09:49:29.895Z,64.80
2018-04-18T09:51:57.547Z,63.10
2018-04-18T09:54:25.481Z,61.50
2018-04-18T09:56:53.905Z,60.60
2018-04-18T09:59:21.566Z,60.60
2018-04-18T10:01:49.236Z,61.00
2018-04-18T10:04:22.402Z,60.70
2018-04-18T10:06:50.411Z,60.80
2018-04-18T10:09:18.060Z,61.20
2018-04-18T10:11:45.781Z,61.00
2018-04-18T10:14:14.225Z,60.40
2018-04-18T10:16:41.857Z,60.40
2018-04-18T10:19:09.537Z,59.70
2018-04-18T10:21:37.188Z,60.10
2018-04-18T10:24:04.851Z,59.50
2018-04-18T10:26:33.448Z,59.50
2018-04-18T10:29:01.087Z,60.00
2018-04-18T10:31:29.488Z,59.70
2018-04-18T10:33:57.160Z,59.70
2018-04-18T10:36:24.875Z,59.70
2018-04-18T10:38:52.532Z,58.60
2018-04-18T10:41:20.213Z,58.60
2018-04-18T10:43:47.930Z,58.50
2018-04-18T10:46:15.585Z,58.00
2018-04-18T10:48:43.300Z,58.40
2018-04-18T10:51:10.952Z,57.00
2018-04-18T10:53:38.583Z,57.30
2018-04-18T10:56:06.256Z,57.80
2018-04-18T10:58:33.967Z,56.80
2018-04-18T11:01:01.650Z,57.40
2018-04-18T11:03:30.164Z,55.90
2018-04-18T11:05:57.923Z,56.00
2018-04-18T11:08:25.565Z,56.80
2018-04-18T11:10:53.216Z,57.90
2018-04-18T11:13:20.872Z,58.80
2018-04-18T11:15:49.435Z,58.60
2018-04-18T11:18:17.084Z,57.50
2018-04-18T11:20:45.096Z,57.10
2018-04-18T11:23:12.750Z,57.50
2018-04-18T11:25:40.891Z,56.60
2018-04-18T11:28:09.521Z,55.80
2018-04-18T11:30:37.939Z,55.80
2018-04-18T11:33:06.194Z,56.30
2018-04-18T11:35:33.828Z,56.50
2018-04-18T11:38:01.513Z,56.10
2018-04-18T11:40:29.877Z,56.70
2018-04-18T11:42:57.518Z,56.60
2018-04-18T11:45:25.221Z,55.10
2018-04-18T11:47:52.884Z,54.20
2018-04-18T11:50:20.565Z,54.50
2018-04-18T11:52:49.722Z,54.80
2018-04-18T11:55:17.368Z,54.70
2018-04-18T11:57:45.042Z,54.60
2018-04-18T12:00:12.732Z,52.90
2018-04-18T12:02:41.141Z,51.50
2018-04-18T12:05:08.821Z,51.40
2018-04-18T12:07:36.475Z,51.20
2018-04-18T12:10:04.261Z,51.80
2018-04-18T12:12:31.909Z,51.50
2018-04-18T12:15:00.475Z,52.10
2018-04-18T12:17:28.121Z,52.10
2018-04-18T12:19:55.817Z,51.40
2018-04-18T12:22:23.476Z,51.60
2018-04-18T12:24:51.121Z,52.20
2018-04-18T12:27:18.817Z,51.10
2018-04-18T12:29:46.496Z,50.60
2018-04-18T12:32:14.190Z,50.60
2018-04-18T12:34:41.868Z,49.90
2018-04-18T12:37:09.560Z,49.70
2018-04-18T12:39:37.203Z,49.80
2018-04-18T12:42:04.893Z,48.60
2018-04-18T12:44:32.582Z,48.50
2018-04-18T12:47:01.008Z,48.90
2018-04-18T12:49:28.672Z,48.90
2018-04-18T12:51:56.353Z,48.20
2018-04-18T12:54:24.231Z,46.70
2018-04-18T12:56:51.959Z,46.70
2018-04-18T12:59:19.597Z,46.90
2018-04-18T13:01:48.077Z,47.60
2018-04-18T13:04:16.520Z,47.40
2018-04-18T13:06:44.184Z,47.30
2018-04-18T13:09:11.836Z,46.50
2018-04-18T13:11:39.530Z,47.20
2018-04-18T13:14:07.208Z,46.60
2018-04-18T13:16:35.689Z,45.80
2018-04-18T13:19:04.193Z,44.50
2018-04-18T13:21:32.622Z,45.40
2018-04-18T13:24:00.309Z,45.40
2018-04-18T13:26:28.013Z,45.50
2018-04-18T13:28:55.749Z,45.30
2018-04-18T13:31:23.440Z,45.00
2018-04-18T13:33:51.089Z,44.90
2018-04-18T13:36:18.823Z,44.40
2018-04-18T13:38:46.505Z,44.40
2018-04-18T13:41:14.168Z,44.10
2018-04-18T13:43:41.841Z,43.70
2018-04-18T13:46:09.549Z,42.90
2018-04-18T13:48:37.194Z,42.60
2018-04-18T13:51:05.340Z,41.10
2018-04-18T13:53:33.020Z,40.10
2018-04-18T13:56:00.676Z,39.50
2018-04-18T13:58:28.361Z,38.70
2018-04-18T14:00:56.045Z,37.60
2018-04-18T14:03:23.801Z,37.30
2018-04-18T14:05:52.348Z,37.80
2018-04-18T14:08:20.033Z,38.10
2018-04-18T14:10:47.714Z,37.90
2018-04-18T14:13:15.415Z,38.30
2018-04-18T14:15:43.095Z,37.10
2018-04-18T14:18:10.745Z,36.90
2018-04-18T14:20:38.421Z,36.90
2018-04-18T14:23:06.065Z,36.50
2018-04-18T14:25:33.745Z,36.20
2018-04-18T14:28:02.170Z,34.70
2018-04-18T14:30:29.873Z,34.60
2018-04-18T14:32:57.513Z,34.40
2018-04-18T14:35:25.164Z,34.60
2018-04-18T14:37:52.825Z,32.30
2018-04-18T14:40:20.500Z,31.60
2018-04-18T14:42:51.697Z,29.80
2018-04-18T14:45:20.198Z,30.00
2018-04-18T14:47:47.885Z,30.20
2018-04-18T14:50:16.382Z,30.40
2018-04-18T14:52:44.060Z,30.00
2018-04-18T14:55:11.798Z,30.10
2018-04-18T14:57:39.880Z,30.00
2018-04-18T15:00:07.642Z,29.60
2018-04-18T15:02:35.764Z,29.70
2018-04-18T15:05:03.551Z,29.40
2018-04-18T15:07:31.219Z,29.30
2018-04-18T15:09:58.908Z,29.40
2018-04-18T15:12:26.605Z,28.90
2018-04-18T15:14:55.005Z,29.70
2018-04-18T15:17:23.109Z,29.70
2018-04-18T15:19:51.928Z,29.70
2018-04-18T15:22:19.653Z,29.40
2018-04-18T15:24:47.320Z,29.90
2018-04-18T15:27:14.990Z,30.70
2018-04-18T15:29:42.693Z,30.70
2018-04-18T15:32:10.337Z,30.40
2018-04-18T15:34:38.009Z,29.80
2018-04-18T15:37:05.941Z,29.40
2018-04-18T15:39:34.208Z,29.70
2018-04-18T15:42:02.612Z,30.80
2018-04-18T15:44:30.315Z,32.40
2018-04-18T15:46:59.099Z,32.80
2018-04-18T15:49:27.614Z,30.30
2018-04-18T15:51:56.361Z,30.70
2018-04-18T15:54:24.895Z,30.70
2018-04-18T15:56:53.150Z,30.00
2018-04-18T15:59:20.940Z,30.40
2018-04-18T16:01:48.949Z,29.10
2018-04-18T16:04:17.525Z,28.90
2018-04-18T16:06:45.694Z,28.90
2018-04-18T16:09:13.562Z,28.40
2018-04-18T16:11:41.285Z,27.20
2018-04-18T16:14:09.473Z,26.30
2018-04-18T16:16:37.881Z,26.80
2018-04-18T16:19:06.192Z,26.30
2018-04-18T16:21:34.650Z,26.70
2018-04-18T16:24:02.297Z,26.50
2018-04-18T16:26:29.981Z,25.70
2018-04-18T16:28:58.233Z,25.70
2018-04-18T16:31:27.289Z,25.80
2018-04-18T16:33:55.159Z,25.80
2018-04-18T16:36:23.082Z,24.70
2018-04-18T16:38:51.409Z,25.40
2018-04-18T16:41:19.782Z,25.00
2018-04-18T16:43:47.571Z,25.60
2018-04-18T16:46:16.073Z,26.20
2018-04-18T16:48:44.576Z,25.90
2018-04-18T16:51:12.378Z,25.80
2018-04-18T16:53:40.092Z,25.80
2018-04-18T16:56:07.852Z,24.80
2018-04-18T16:58:36.296Z,25.30
2018-04-18T17:01:04.099Z,25.50
2018-04-18T17:03:31.821Z,25.80
2018-04-18T17:06:00.114Z,26.00
2018-04-18T17:08:27.828Z,26.50
2018-04-18T17:10:55.661Z,27.20
2018-04-18T17:13:24.539Z,26.40
2018-04-18T17:15:53.632Z,26.50
2018-04-18T17:18:21.339Z,26.50
2018-04-18T17:20:50.047Z,27.50
2018-04-18T17:23:19.088Z,27.40
2018-04-18T17:25:47.276Z,27.40
2018-04-18T17:28:14.937Z,27.60
2018-04-18T17:30:43.223Z,28.50
2018-04-18T17:33:10.960Z,29.10
2018-04-18T17:35:38.998Z,29.10
2018-04-18T17:38:07.637Z,30.00
2018-04-18T17:40:35.509Z,29.90
2018-04-18T17:43:04.126Z,29.90
2018-04-18T17:45:32.060Z,29.90
2018-04-18T17:48:00.930Z,30.30
2018-04-18T17:50:29.421Z,30.30
2018-04-18T17:52:57.186Z,30.00
2018-04-18T17:55:25.749Z,29.60
2018-04-18T17:57:54.182Z,29.50
2018-04-18T18:00:23.482Z,29.50
2018-04-18T18:02:52.909Z,29.80
2018-04-18T18:05:21.009Z,30.40
2018-04-18T18:07:49.380Z,30.60
2018-04-18T18:10:17.213Z,31.10
2018-04-18T18:12:45.018Z,31.10
2018-04-18T18:15:13.553Z,31.90
2018-04-18T18:17:41.844Z,31.90
2018-04-18T18:20:10.277Z,32.90
2018-04-18T18:22:39.431Z,33.20
2018-04-18T18:25:07.205Z,33.20
2018-04-18T18:27:34.943Z,34.00
2018-04-18T18:30:03.182Z,34.50
2018-04-18T18:32:32.000Z,34.40
2018-04-18T18:34:59.903Z,34.40
2018-04-18T18:37:27.713Z,34.70
2018-04-18T18:39:56.305Z,35.30
2018-04-18T18:42:25.235Z,35.20
2018-04-18T18:44:53.484Z,35.10
2018-04-18T18:47:22.730Z,36.20
2018-04-18T18:49:52.029Z,36.50
2018-04-18T18:52:19.923Z,36.50
2018-04-18T18:54:47.738Z,36.70
2018-04-18T18:57:16.188Z,37.40
2018-04-18T18:59:44.323Z,38.20
2018-04-18T19:02:12.008Z,38.50
2018-04-18T19:04:39.689Z,39.10
2018-04-18T19:07:07.378Z,40.10
2018-04-18T19:09:35.838Z,41.40
2018-04-18T19:12:04.317Z,41.90
2018-04-18T19:14:32.009Z,41.90
2018-04-18T19:17:01.463Z,42.90
2018-04-18T19:19:29.192Z,42.90
2018-04-18T19:21:56.973Z,43.40
2018-04-18T19:24:25.301Z,43.70
2018-04-18T19:26:53.070Z,44.20
2018-04-18T19:29:20.773Z,44.40
2018-04-18T19:31:48.682Z,44.60
2018-04-18T19:34:17.374Z,45.30
2018-04-18T19:36:45.204Z,45.30
2018-04-18T19:39:13.038Z,45.50
2018-04-18T19:41:40.864Z,45.70
2018-04-18T19:44:08.633Z,45.80
2018-04-18T19:46:36.440Z,46.40
2018-04-18T19:49:04.284Z,46.60
2018-04-18T19:51:32.068Z,46.80
2018-04-18T19:53:59.923Z,47.50
2018-04-18T19:56:27.737Z,47.70
2018-04-18T19:58:55.542Z,48.20
2018-04-18T20:01:23.895Z,48.50
2018-04-18T20:03:51.759Z,48.80
2018-04-18T20:06:19.616Z,48.70
2018-04-18T20:08:47.788Z,49.30
2018-04-18T20:11:15.564Z,49.50
2018-04-18T20:13:43.416Z,49.60
2018-04-18T20:16:11.581Z,49.60
2018-04-18T20:18:39.846Z,49.50
2018-04-18T20:21:08.009Z,49.70
2018-04-18T20:23:35.775Z,49.80
2018-04-18T20:26:03.755Z,50.00
2018-04-18T20:28:31.559Z,50.10
2018-04-18T20:30:59.576Z,50.30
2018-04-18T20:33:27.981Z,50.20
2018-04-18T20:35:55.952Z,50.40
2018-04-18T20:38:24.072Z,50.30
2018-04-18T20:40:53.168Z,50.30
2018-04-18T20:43:22.583Z,50.40
2018-04-18T20:45:51.665Z,50.20
2018-04-18T20:48:19.463Z,50.10
2018-04-18T20:50:47.834Z,50.40
2018-04-18T20:53:16.691Z,50.40
2018-04-18T20:55:45.472Z,50.50
2018-04-18T20:58:13.184Z,50.70
2018-04-18T21:00:41.714Z,51.30
2018-04-18T21:03:09.753Z,51.10
2018-04-18T21:05:37.515Z,50.60
2018-04-18T21:08:05.316Z,51.10
2018-04-18T21:10:33.177Z,51.10
2018-04-18T21:13:00.997Z,51.00
2018-04-18T21:15:29.870Z,50.90
2018-04-18T21:17:57.741Z,50.90
2018-04-18T21:20:26.748Z,51.40
2018-04-18T21:22:54.530Z,51.90
2018-04-18T21:25:23.393Z,52.00
2018-04-18T21:27:52.178Z,51.90
2018-04-18T21:30:20.081Z,51.80
2018-04-18T21:32:48.962Z,51.90
2018-04-18T21:35:16.636Z,51.50
2018-04-18T21:37:44.541Z,51.50
2018-04-18T21:40:12.243Z,51.50
2018-04-18T21:42:40.143Z,51.90
2018-04-18T21:45:08.162Z,51.80
2018-04-18T21:47:35.876Z,51.80
2018-04-18T21:50:03.976Z,51.80
2018-04-18T21:52:32.080Z,52.10
2018-04-18T21:54:59.813Z,52.10
2018-04-18T21:57:28.296Z,52.40
2018-04-18T21:59:56.806Z,52.60
2018-04-18T22:02:25.034Z,52.60
2018-04-18T22:04:52.717Z,52.50
2018-04-18T22:07:21.166Z,52.70
2018-04-18T22:09:49.376Z,53.10
2018-04-18T22:12:17.057Z,52.80
2018-04-18T22:14:46.256Z,52.90
2018-04-18T22:17:14.717Z,52.90
2018-04-18T22:19:42.387Z,53.10
2018-04-18T22:22:10.493Z,53.40
2018-04-18T22:24:39.463Z,53.30
2018-04-18T22:27:07.159Z,53.40
2018-04-18T22:29:35.696Z,53.80
2018-04-18T22:32:04.176Z,53.80
2018-04-18T22:34:32.248Z,54.30
2018-04-18T22:36:59.982Z,53.90
2018-04-18T22:39:27.995Z,54.00
2018-04-18T22:41:56.461Z,54.20
2018-04-18T22:44:24.143Z,54.40
2018-04-18T22:46:52.049Z,54.80
2018-04-18T22:49:19.766Z,54.30
2018-04-18T22:51:47.702Z,54.40
2018-04-18T22:54:15.397Z,54.70
2018-04-18T22:56:43.479Z,55.00
2018-04-18T22:59:13.485Z,54.80
2018-04-18T23:01:41.209Z,55.20
2018-04-18T23:04:10.349Z,54.90
2018-04-18T23:06:40.104Z,56.00
2018-04-18T23:09:08.388Z,55.60
2018-04-18T23:11:36.933Z,56.10
2018-04-18T23:14:04.840Z,56.10
2018-04-18T23:16:33.033Z,56.10
2018-04-18T23:19:02.007Z,56.10
2018-04-18T23:21:30.953Z,56.60
2018-04-18T23:23:59.038Z,56.10
2018-04-18T23:26:26.813Z,56.40
2018-04-18T23:28:55.906Z,56.60
2018-04-18T23:31:24.729Z,56.80
2018-04-18T23:33:52.596Z,56.80
2018-04-18T23:36:20.537Z,56.90
2018-04-18T23:38:48.341Z,57.10
2018-04-18T23:41:16.489Z,57.10
2018-04-18T23:43:44.614Z,57.30
2018-04-18T23:46:13.267Z,57.60
2018-04-18T23:48:41.018Z,57.50
2018-04-18T23:51:09.248Z,57.30
2018-04-18T23:53:38.091Z,57.70
2018-04-18T23:56:06.087Z,57.60
2018-04-18T23:58:34.292Z,58.00
